createdAt,value
2023-02-27T16:03:35.620Z,91.40
2023-02-27T16:04:42.730Z,102.13
2023-02-27T16:05:51.885Z,121.40
2023-02-27T16:07:05.700Z,117.90
2023-02-27T16:08:17.576Z,116.57
2023-02-27T16:09:26.145Z,110.75
2023-02-27T16:10:37.214Z,103.43
2023-02-27T16:11:44.512Z,103.72
2023-02-27T16:12:51.392Z,98.35
2023-02-27T16:13:57.187Z,100.63
2023-02-27T16:15:29.290Z,98.57
2023-02-27T16:16:39.048Z,95.07
2023-02-27T16:17:57.135Z,112.38
2023-02-27T16:19:17.432Z,110.22
2023-02-27T16:20:41.314Z,117.10
2023-02-27T16:22:09.736Z,111.90
2023-02-27T16:23:28.096Z,112.43
2023-02-27T16:24:37.830Z,110.72
2023-02-27T16:26:07.477Z,119.05
2023-02-27T16:27:21.283Z,142.40
2023-02-27T16:28:28.396Z,142.52
2023-02-27T16:29:38.602Z,154.93
2023-02-27T16:30:44.101Z,206.27
2023-02-27T16:31:52.283Z,174.93
2023-02-27T16:33:03.048Z,165.55
2023-02-27T16:34:35.573Z,167.25
2023-02-27T16:35:50.931Z,173.33
2023-02-27T16:36:58.903Z,156.98
2023-02-27T16:38:05.112Z,159.05
2023-02-27T16:39:15.523Z,134.82
2023-02-27T16:40:30.105Z,135.18
2023-02-27T16:41:39.646Z,143.43
2023-02-27T16:42:45.107Z,136.45
2023-02-27T16:43:56.478Z,127.20
2023-02-27T16:45:03.056Z,139.43
2023-02-27T16:46:09.724Z,129.82
2023-02-27T16:47:16.328Z,130.93
2023-02-27T16:48:21.547Z,119.97
2023-02-27T16:49:33.584Z,121.05
2023-02-27T16:50:42.208Z,112.57
2023-02-27T16:51:48.878Z,109.93
2023-02-27T16:52:55.459Z,110.97
2023-02-27T16:54:03.480Z,111.43
2023-02-27T16:55:12.275Z,122.00
2023-02-27T16:56:23.680Z,118.78
2023-02-27T16:57:35.993Z,118.72
2023-02-27T16:58:41.445Z,114.40
2023-02-27T16:59:48.167Z,103.03
2023-02-27T17:00:53.400Z,99.50
2023-02-27T17:02:00.251Z,113.93
2023-02-27T17:03:06.879Z,108.38
2023-02-27T17:04:25.008Z,98.53
2023-02-27T17:05:33.986Z,93.53
2023-02-27T17:06:39.260Z,90.60
2023-02-27T17:07:46.257Z,87.90
2023-02-27T17:08:52.928Z,93.30
2023-02-27T17:10:00.172Z,84.67
2023-02-27T17:11:09.481Z,86.18
2023-02-27T17:12:18.948Z,86.78
2023-02-27T17:13:24.208Z,91.90
2023-02-27T17:14:30.887Z,82.13
2023-02-27T17:15:37.435Z,90.40
2023-02-27T17:16:44.042Z,90.32
2023-02-27T17:17:50.719Z,87.13
2023-02-27T17:18:57.308Z,97.40
2023-02-27T17:20:06.779Z,86.47
2023-02-27T17:21:13.716Z,86.37
2023-02-27T17:22:20.422Z,78.28
2023-02-27T17:23:27.426Z,85.45
2023-02-27T17:24:44.347Z,80.20
2023-02-27T17:25:51.299Z,97.38
2023-02-27T17:27:01.236Z,86.73
2023-02-27T17:28:08.565Z,86.03
2023-02-27T17:29:16.840Z,85.53
2023-02-27T17:30:23.873Z,86.18
2023-02-27T17:31:30.541Z,93.38
2023-02-27T17:32:38.224Z,92.93
2023-02-27T17:33:46.502Z,98.57
2023-02-27T17:34:55.509Z,101.35
2023-02-27T17:36:07.193Z,96.30
2023-02-27T17:37:18.087Z,110.25
2023-02-27T17:38:24.688Z,98.00
2023-02-27T17:39:30.008Z,92.43
2023-02-27T17:40:44.629Z,101.05
2023-02-27T17:41:55.059Z,104.80
2023-02-27T17:43:01.627Z,104.68
2023-02-27T17:44:08.351Z,83.50
2023-02-27T17:45:17.666Z,85.15
2023-02-27T17:46:27.003Z,96.22
2023-02-27T17:47:34.896Z,90.68
2023-02-27T17:48:43.156Z,89.07
2023-02-27T17:49:53.324Z,88.03
2023-02-27T17:51:01.297Z,82.10
2023-02-27T17:52:08.572Z,88.88
2023-02-27T17:53:17.245Z,88.60
2023-02-27T17:54:23.941Z,92.60
2023-02-27T17:55:29.175Z,88.73
2023-02-27T17:56:37.007Z,90.82
2023-02-27T17:57:43.947Z,89.78
2023-02-27T17:58:50.511Z,83.82
2023-02-27T17:59:57.091Z,85.13
2023-02-27T18:01:08.498Z,77.97
2023-02-27T18:02:15.277Z,86.20
2023-02-27T18:03:20.755Z,87.90
2023-02-27T18:04:27.888Z,83.38
2023-02-27T18:05:34.622Z,89.30
2023-02-27T18:06:45.388Z,87.93
2023-02-27T18:07:53.470Z,81.55
2023-02-27T18:09:07.570Z,85.88
2023-02-27T18:10:15.706Z,83.95
2023-02-27T18:11:23.897Z,85.63
2023-02-27T18:13:48.626Z,81.18
2023-02-27T18:14:55.272Z,80.20
2023-02-27T18:16:02.202Z,75.55
2023-02-27T18:17:13.266Z,81.85
2023-02-27T18:18:19.920Z,73.87
2023-02-27T18:19:26.749Z,71.53
2023-02-27T18:20:34.154Z,76.13
2023-02-27T18:21:41.724Z,69.78
2023-02-27T18:22:50.457Z,75.60
2023-02-27T18:23:57.972Z,71.13
2023-02-27T18:25:08.177Z,74.10
2023-02-27T18:26:29.334Z,67.75
2023-02-27T18:27:37.392Z,77.68
2023-02-27T18:28:44.165Z,71.97
2023-02-27T18:29:50.848Z,77.97
2023-02-27T18:30:57.742Z,70.03
2023-02-27T18:32:04.839Z,73.22
2023-02-27T18:33:12.559Z,73.65
2023-02-27T18:34:19.209Z,69.85
2023-02-27T18:35:24.671Z,72.23
2023-02-27T18:36:31.898Z,72.10
2023-02-27T18:37:38.809Z,68.50
2023-02-27T18:38:47.427Z,68.03
2023-02-27T18:39:54.128Z,74.30
2023-02-27T18:41:02.238Z,69.47
2023-02-27T18:42:12.788Z,72.05
2023-02-27T18:43:18.107Z,74.15
2023-02-27T18:44:24.763Z,74.22
2023-02-27T18:45:33.849Z,75.53
2023-02-27T18:46:49.310Z,74.17
2023-02-27T18:47:58.200Z,73.20
2023-02-27T18:49:04.981Z,71.43
2023-02-27T18:50:10.930Z,65.40
2023-02-27T18:51:24.711Z,63.10
2023-02-27T18:52:38.504Z,76.00
2023-02-27T18:53:46.740Z,85.88
2023-02-27T18:54:53.437Z,86.68
2023-02-27T18:56:04.859Z,80.40
2023-02-27T18:57:11.851Z,82.35
2023-02-27T18:58:18.680Z,78.03
2023-02-27T18:59:25.696Z,77.53
2023-02-27T19:00:32.367Z,82.97
2023-02-27T19:01:39.789Z,73.50
2023-02-27T19:02:46.471Z,72.97
2023-02-27T19:03:57.206Z,75.70
2023-02-27T19:05:07.185Z,78.45
2023-02-27T19:06:13.733Z,74.22
2023-02-27T19:07:21.180Z,76.93
2023-02-27T19:08:30.542Z,77.18
2023-02-27T19:09:37.131Z,81.33
2023-02-27T19:10:42.559Z,71.57
2023-02-27T19:11:51.162Z,77.80
2023-02-27T19:12:58.052Z,79.03
2023-02-27T19:14:13.972Z,78.35
2023-02-27T19:15:20.982Z,76.70
2023-02-27T19:16:26.757Z,79.55
2023-02-27T19:17:33.914Z,81.95
2023-02-27T19:18:40.510Z,74.63
2023-02-27T19:19:47.137Z,74.55
2023-02-27T19:20:57.368Z,75.70
2023-02-27T19:22:05.211Z,75.05
2023-02-27T19:23:10.464Z,69.05
2023-02-27T19:24:18.181Z,68.60
2023-02-27T19:25:24.014Z,72.68
2023-02-27T19:26:30.841Z,69.30
2023-02-27T19:27:47.405Z,68.25
2023-02-27T19:28:55.199Z,73.20
2023-02-27T19:30:02.841Z,67.07
2023-02-27T19:31:13.715Z,70.10
2023-02-27T19:32:19.060Z,69.27
2023-02-27T19:33:27.236Z,67.28
2023-02-27T19:34:39.896Z,67.18
2023-02-27T19:35:46.552Z,63.78
2023-02-27T19:36:53.177Z,72.95
2023-02-27T19:38:00.650Z,72.27
2023-02-27T19:39:06.867Z,75.10
2023-02-27T19:40:15.477Z,66.38
2023-02-27T19:41:22.745Z,90.05
2023-02-27T19:42:39.554Z,80.20
2023-02-27T19:43:57.578Z,72.07
2023-02-27T19:45:04.271Z,66.13
2023-02-27T19:46:13.103Z,77.35
2023-02-27T19:47:18.820Z,81.50
2023-02-27T23:10:40.946Z,69.20
2023-02-27T23:11:49.787Z,62.93
2023-02-27T23:12:55.178Z,65.18
2023-02-27T23:14:01.932Z,61.33
2023-02-27T23:15:08.002Z,63.22
2023-02-27T23:16:15.086Z,63.08
2023-02-27T23:17:20.596Z,67.73
2023-02-27T23:18:27.353Z,67.07
2023-02-27T23:19:36.924Z,62.03
2023-02-27T23:20:45.458Z,65.80
2023-02-27T23:21:53.993Z,70.15
2023-02-27T23:22:59.404Z,69.20
2023-02-27T23:24:08.360Z,64.75
2023-02-27T23:25:13.762Z,63.20
2023-02-27T23:26:20.447Z,63.70
2023-02-27T23:27:27.613Z,63.72
2023-02-27T23:28:37.184Z,65.00
2023-02-27T23:29:46.032Z,65.30
2023-02-27T23:30:52.255Z,68.68
2023-02-27T23:31:59.058Z,72.97
2023-02-27T23:33:10.882Z,69.95
2023-02-27T23:34:17.992Z,73.03
2023-02-27T23:35:25.613Z,66.13
2023-02-27T23:36:34.278Z,76.28
2023-02-27T23:37:40.406Z,78.97
2023-02-27T23:38:48.982Z,73.80
2023-02-27T23:39:56.292Z,75.70
2023-02-27T23:41:08.987Z,75.63
2023-02-27T23:42:32.162Z,78.80
2023-02-27T23:43:57.841Z,74.93
2023-02-27T23:45:13.920Z,77.43
2023-02-27T23:46:19.394Z,71.20
2023-02-27T23:47:42.550Z,67.88
2023-02-27T23:48:49.354Z,72.40
2023-02-27T23:49:55.419Z,70.07
2023-02-27T23:51:07.095Z,78.40
2023-02-27T23:52:16.638Z,77.00
2023-02-27T23:53:23.488Z,76.25
2023-02-27T23:54:32.176Z,82.93
2023-02-27T23:55:40.438Z,74.15
2023-02-27T23:57:56.917Z,74.80
2023-02-27T23:59:08.075Z,73.38
